sensor_id;sensor_type;location;lat;lon;timestamp;temperature;humidity
14154;DHT22;7157;53.144;7.570;2023-02-28T00:04:29;5.13;89.02
14154;DHT22;7157;53.144;7.570;2023-02-28T00:14:33;5.13;88.68
14154;DHT22;7157;53.144;7.570;2023-02-28T00:24:35;5.15;89.27
14154;DHT22;7157;53.144;7.570;2023-02-28T00:34:39;5.21;88.72
14154;DHT22;7157;53.144;7.570;2023-02-28T00:44:42;5.17;88.98
14154;DHT22;7157;53.144;7.570;2023-02-28T00:54:46;5.01;89.88
14154;DHT22;7157;53.144;7.570;2023-02-28T01:04:49;5.10;90.12
14154;DHT22;7157;53.144;7.570;2023-02-28T01:14:53;5.04;90.42
14154;DHT22;7157;53.144;7.570;2023-02-28T01:24:56;5.05;90.98
14154;DHT22;7157;53.144;7.570;2023-02-28T01:35:00;4.97;91.05
14154;DHT22;7157;53.144;7.570;2023-02-28T01:45:14;4.96;90.94
14154;DHT22;7157;53.144;7.570;2023-02-28T01:55:22;5.01;91.13
14154;DHT22;7157;53.144;7.570;2023-02-28T02:05:30;5.04;90.96
14154;DHT22;7157;53.144;7.570;2023-02-28T02:15:40;5.12;90.72
14154;DHT22;7157;53.144;7.570;2023-02-28T02:25:45;5.10;90.69
14154;DHT22;7157;53.144;7.570;2023-02-28T02:35:54;4.98;91.22
14154;DHT22;7157;53.144;7.570;2023-02-28T02:46:01;4.89;91.75
14154;DHT22;7157;53.144;7.570;2023-02-28T02:56:07;4.94;91.80
14154;DHT22;7157;53.144;7.570;2023-02-28T03:06:10;5.00;91.66
14154;DHT22;7157;53.144;7.570;2023-02-28T03:16:32;4.95;92.34
14154;DHT22;7157;53.144;7.570;2023-02-28T03:26:39;4.92;92.31
14154;DHT22;7157;53.144;7.570;2023-02-28T03:36:49;4.96;92.56
14154;DHT22;7157;53.144;7.570;2023-02-28T03:46:58;4.97;92.84
14154;DHT22;7157;53.144;7.570;2023-02-28T03:57:08;5.00;92.79
14154;DHT22;7157;53.144;7.570;2023-02-28T04:07:12;4.98;92.40
14154;DHT22;7157;53.144;7.570;2023-02-28T04:17:17;4.92;93.23
14154;DHT22;7157;53.144;7.570;2023-02-28T04:27:20;4.88;93.56
14154;DHT22;7157;53.144;7.570;2023-02-28T04:37:24;4.93;93.34
14154;DHT22;7157;53.144;7.570;2023-02-28T04:47:30;4.89;93.00
14154;DHT22;7157;53.144;7.570;2023-02-28T04:57:34;4.88;93.14
14154;DHT22;7157;53.144;7.570;2023-02-28T05:07:36;4.81;92.79
14154;DHT22;7157;53.144;7.570;2023-02-28T05:17:40;4.78;92.88
14154;DHT22;7157;53.144;7.570;2023-02-28T05:27:43;4.73;93.09
14154;DHT22;7157;53.144;7.570;2023-02-28T05:37:47;4.73;92.56
14154;DHT22;7157;53.144;7.570;2023-02-28T05:47:53;4.68;92.58
14154;DHT22;7157;53.144;7.570;2023-02-28T05:57:57;4.57;92.85
14154;DHT22;7157;53.144;7.570;2023-02-28T06:08:00;4.45;93.72
14154;DHT22;7157;53.144;7.570;2023-02-28T06:18:04;4.43;93.62
14154;DHT22;7157;53.144;7.570;2023-02-28T06:28:07;4.49;93.24
14154;DHT22;7157;53.144;7.570;2023-02-28T06:38:11;4.51;93.08
14154;DHT22;7157;53.144;7.570;2023-02-28T06:48:14;4.41;93.36
14154;DHT22;7157;53.144;7.570;2023-02-28T06:58:17;4.32;93.58
14154;DHT22;7157;53.144;7.570;2023-02-28T07:08:20;4.38;93.78
14154;DHT22;7157;53.144;7.570;2023-02-28T07:18:24;4.64;93.80
14154;DHT22;7157;53.144;7.570;2023-02-28T07:28:27;4.86;93.69
14154;DHT22;7157;53.144;7.570;2023-02-28T07:38:33;5.08;93.38
14154;DHT22;7157;53.144;7.570;2023-02-28T07:48:37;5.18;93.40
14154;DHT22;7157;53.144;7.570;2023-02-28T07:58:41;5.45;92.77
14154;DHT22;7157;53.144;7.570;2023-02-28T08:08:43;5.77;93.01
14154;DHT22;7157;53.144;7.570;2023-02-28T08:18:48;6.14;91.13
14154;DHT22;7157;53.144;7.570;2023-02-28T08:28:50;6.02;90.53
14154;DHT22;7157;53.144;7.570;2023-02-28T08:38:54;5.71;90.47
14154;DHT22;7157;53.144;7.570;2023-02-28T08:48:58;5.98;90.23
14154;DHT22;7157;53.144;7.570;2023-02-28T08:59:04;6.10;88.38
14154;DHT22;7157;53.144;7.570;2023-02-28T09:09:06;5.77;87.92
14154;DHT22;7157;53.144;7.570;2023-02-28T09:19:12;6.23;87.16
14154;DHT22;7157;53.144;7.570;2023-02-28T09:29:15;6.72;84.85
14154;DHT22;7157;53.144;7.570;2023-02-28T09:39:20;7.05;77.50
14154;DHT22;7157;53.144;7.570;2023-02-28T09:49:26;7.34;74.54
14154;DHT22;7157;53.144;7.570;2023-02-28T09:59:43;7.62;69.94
14154;DHT22;7157;53.144;7.570;2023-02-28T10:09:51;7.60;66.81
14154;DHT22;7157;53.144;7.570;2023-02-28T10:20:00;7.76;67.53
14154;DHT22;7157;53.144;7.570;2023-02-28T10:30:11;7.71;62.09
14154;DHT22;7157;53.144;7.570;2023-02-28T10:40:33;8.09;62.21
14154;DHT22;7157;53.144;7.570;2023-02-28T10:50:42;8.12;59.75
14154;DHT22;7157;53.144;7.570;2023-02-28T11:00:46;8.41;59.68
14154;DHT22;7157;53.144;7.570;2023-02-28T11:10:54;8.90;57.12
14154;DHT22;7157;53.144;7.570;2023-02-28T11:21:00;9.03;56.49
14154;DHT22;7157;53.144;7.570;2023-02-28T11:31:14;10.04;58.17
14154;DHT22;7157;53.144;7.570;2023-02-28T11:41:31;25.51;23.34
14154;DHT22;7157;53.144;7.570;2023-02-28T11:51:48;32.09;15.90
14154;DHT22;7157;53.144;7.570;2023-02-28T12:02:05;31.35;15.13
14154;DHT22;7157;53.144;7.570;2023-02-28T12:12:20;32.49;11.40
14154;DHT22;7157;53.144;7.570;2023-02-28T12:22:32;32.01;12.78
14154;DHT22;7157;53.144;7.570;2023-02-28T12:32:39;31.81;11.78
14154;DHT22;7157;53.144;7.570;2023-02-28T12:42:47;31.76;10.97
14154;DHT22;7157;53.144;7.570;2023-02-28T12:52:56;29.35;12.85
14154;DHT22;7157;53.144;7.570;2023-02-28T13:13:34;20.95;23.16
14154;DHT22;7157;53.144;7.570;2023-02-28T13:23:57;23.07;20.12
14154;DHT22;7157;53.144;7.570;2023-02-28T13:34:14;19.62;23.60
14154;DHT22;7157;53.144;7.570;2023-02-28T13:44:20;18.52;26.39
14154;DHT22;7157;53.144;7.570;2023-02-28T13:54:35;17.28;28.32
14154;DHT22;7157;53.144;7.570;2023-02-28T14:04:54;21.47;22.17
14154;DHT22;7157;53.144;7.570;2023-02-28T14:15:00;20.69;24.33
14154;DHT22;7157;53.144;7.570;2023-02-28T14:25:09;18.96;24.71
14154;DHT22;7157;53.144;7.570;2023-02-28T14:35:29;18.56;23.24
14154;DHT22;7157;53.144;7.570;2023-02-28T14:45:39;18.37;24.37
14154;DHT22;7157;53.144;7.570;2023-02-28T14:55:44;16.12;29.09
14154;DHT22;7157;53.144;7.570;2023-02-28T15:05:53;15.18;30.58
14154;DHT22;7157;53.144;7.570;2023-02-28T15:15:58;14.98;31.99
14154;DHT22;7157;53.144;7.570;2023-02-28T15:26:05;14.51;33.41
14154;DHT22;7157;53.144;7.570;2023-02-28T15:36:14;13.78;34.17
14154;DHT22;7157;53.144;7.570;2023-02-28T15:46:20;12.52;36.86
14154;DHT22;7157;53.144;7.570;2023-02-28T15:56:24;11.97;38.61
14154;DHT22;7157;53.144;7.570;2023-02-28T16:06:39;11.34;39.33
14154;DHT22;7157;53.144;7.570;2023-02-28T16:16:45;10.79;40.76
14154;DHT22;7157;53.144;7.570;2023-02-28T16:26:52;9.99;42.42
14154;DHT22;7157;53.144;7.570;2023-02-28T16:36:56;9.29;44.16
14154;DHT22;7157;53.144;7.570;2023-02-28T16:47:02;8.82;45.40
14154;DHT22;7157;53.144;7.570;2023-02-28T16:57:05;8.32;45.61
14154;DHT22;7157;53.144;7.570;2023-02-28T17:07:11;8.03;45.84
14154;DHT22;7157;53.144;7.570;2023-02-28T17:17:17;7.78;46.04
14154;DHT22;7157;53.144;7.570;2023-02-28T17:27:21;7.49;46.66
14154;DHT22;7157;53.144;7.570;2023-02-28T17:37:24;7.18;46.75
14154;DHT22;7157;53.144;7.570;2023-02-28T17:47:28;6.63;48.86
14154;DHT22;7157;53.144;7.570;2023-02-28T17:57:31;6.16;50.77
14154;DHT22;7157;53.144;7.570;2023-02-28T18:07:36;5.86;52.12
14154;DHT22;7157;53.144;7.570;2023-02-28T18:17:39;5.54;52.69
14154;DHT22;7157;53.144;7.570;2023-02-28T18:27:44;5.22;54.94
14154;DHT22;7157;53.144;7.570;2023-02-28T18:38:00;5.03;55.78
14154;DHT22;7157;53.144;7.570;2023-02-28T18:48:04;4.84;56.70
14154;DHT22;7157;53.144;7.570;2023-02-28T18:58:07;4.63;58.29
14154;DHT22;7157;53.144;7.570;2023-02-28T19:08:11;4.34;58.83
14154;DHT22;7157;53.144;7.570;2023-02-28T19:18:14;3.98;59.75
14154;DHT22;7157;53.144;7.570;2023-02-28T19:28:18;3.58;61.77
14154;DHT22;7157;53.144;7.570;2023-02-28T19:38:21;3.34;62.66
14154;DHT22;7157;53.144;7.570;2023-02-28T19:48:25;3.00;64.17
14154;DHT22;7157;53.144;7.570;2023-02-28T19:58:30;2.72;66.28
14154;DHT22;7157;53.144;7.570;2023-02-28T20:08:35;2.62;67.69
14154;DHT22;7157;53.144;7.570;2023-02-28T20:18:39;2.37;69.69
14154;DHT22;7157;53.144;7.570;2023-02-28T20:28:43;2.08;72.04
14154;DHT22;7157;53.144;7.570;2023-02-28T20:38:46;2.02;72.87
14154;DHT22;7157;53.144;7.570;2023-02-28T20:48:50;2.07;73.02
14154;DHT22;7157;53.144;7.570;2023-02-28T20:58:53;2.05;72.70
14154;DHT22;7157;53.144;7.570;2023-02-28T21:08:59;1.78;75.15
14154;DHT22;7157;53.144;7.570;2023-02-28T21:19:02;1.75;74.41
14154;DHT22;7157;53.144;7.570;2023-02-28T21:29:07;1.75;75.12
14154;DHT22;7157;53.144;7.570;2023-02-28T21:39:14;1.88;73.98
14154;DHT22;7157;53.144;7.570;2023-02-28T21:49:18;1.51;75.15
14154;DHT22;7157;53.144;7.570;2023-02-28T21:59:21;1.37;75.74
14154;DHT22;7157;53.144;7.570;2023-02-28T22:09:25;1.16;78.06
14154;DHT22;7157;53.144;7.570;2023-02-28T22:19:28;1.10;76.92
14154;DHT22;7157;53.144;7.570;2023-02-28T22:29:32;1.01;76.88
14154;DHT22;7157;53.144;7.570;2023-02-28T22:39:34;0.88;77.08
14154;DHT22;7157;53.144;7.570;2023-02-28T22:49:38;0.83;77.06
14154;DHT22;7157;53.144;7.570;2023-02-28T22:59:41;0.72;77.69
14154;DHT22;7157;53.144;7.570;2023-02-28T23:09:45;0.60;78.46
14154;DHT22;7157;53.144;7.570;2023-02-28T23:19:51;0.54;78.41
14154;DHT22;7157;53.144;7.570;2023-02-28T23:29:55;0.44;78.85
14154;DHT22;7157;53.144;7.570;2023-02-28T23:39:57;0.32;79.12
14154;DHT22;7157;53.144;7.570;2023-02-28T23:50:02;0.21;79.91
